Time,TemperatureF,DewpointF,PressureIn,WindDirection,WindDirectionDegrees,WindSpeedMPH,WindSpeedGustMPH,Humidity,HourlyPrecipIn,Conditions,Clouds,dailyrainin,SoftwareType,DateUTC
2013-01-13 00:06:00,49.7,47.0,30.00,South,184,4.0,-999.0,90,-99.99,,,0.00,weatherlink.com 1.10,2013-01-13 05:06:00,
2013-01-13 00:21:00,50.5,47.0,30.00,SW,221,3.0,-999.0,88,-99.99,,,0.00,weatherlink.com 1.10,2013-01-13 05:21:00,
2013-01-13 00:36:00,50.9,48.0,29.99,South,172,2.0,-999.0,88,-99.99,,,0.00,weatherlink.com 1.10,2013-01-13 05:36:00,
2013-01-13 00:51:00,50.9,48.0,29.99,SSW,192,0.0,-999.0,88,-99.99,,,0.00,weatherlink.com 1.10,2013-01-13 05:51:00,
2013-01-13 01:06:00,50.3,47.0,29.99,South,188,0.0,-999.0,87,-99.99,,,0.00,weatherlink.com 1.10,2013-01-13 06:06:00,
2013-01-13 01:36:00,49.1,46.0,29.97,ENE,57,3.0,-999.0,89,-99.99,,,0.00,weatherlink.com 1.10,2013-01-13 06:36:00,
2013-01-13 01:51:00,48.6,46.0,29.98,SSE,152,2.0,-999.0,90,-99.99,,,0.00,weatherlink.com 1.10,2013-01-13 06:51:00,
2013-01-13 02:21:00,47.7,45.0,29.99,ESE,121,0.0,-999.0,90,-99.99,,,0.00,weatherlink.com 1.10,2013-01-13 07:21:00,
2013-01-13 03:06:00,46.2,44.0,29.97,East,90,0.0,-999.0,93,-99.99,,,0.00,weatherlink.com 1.10,2013-01-13 08:06:00,
2013-01-13 03:36:00,45.8,44.0,29.96,East,90,0.0,-999.0,93,-99.99,,,0.00,weatherlink.com 1.10,2013-01-13 08:36:00,
2013-01-13 03:51:00,44.6,43.0,29.95,ESE,110,0.0,-999.0,94,-99.99,,,0.00,weatherlink.com 1.10,2013-01-13 08:51:00,
2013-01-13 04:36:00,44.1,43.0,29.92,ESE,109,0.0,-999.0,94,-99.99,,,0.00,weatherlink.com 1.10,2013-01-13 09:36:00,
2013-01-13 04:51:00,46.1,45.0,29.91,NE,46,3.0,-999.0,96,-99.99,,,0.00,weatherlink.com 1.10,2013-01-13 09:51:00,
2013-01-13 05:06:00,46.4,45.0,29.90,ENE,63,2.0,-999.0,95,-99.99,,,0.00,weatherlink.com 1.10,2013-01-13 10:06:00,
2013-01-13 05:21:00,47.2,46.0,29.88,ESE,113,1.0,-999.0,95,-99.99,,,0.00,weatherlink.com 1.10,2013-01-13 10:21:00,
2013-01-13 05:37:00,49.3,48.0,29.86,SE,144,6.0,-999.0,94,-99.99,,,0.00,weatherlink.com 1.10,2013-01-13 10:37:00,
2013-01-13 06:07:00,51.6,48.0,29.87,SSE,167,15.0,-999.0,88,-99.99,,,0.00,weatherlink.com 1.10,2013-01-13 11:07:00,
2013-01-13 06:22:00,52.9,49.0,29.86,SSW,204,9.0,-999.0,85,-99.99,,,0.00,weatherlink.com 1.10,2013-01-13 11:22:00,
2013-01-13 07:07:00,52.6,49.0,29.85,South,191,7.0,-999.0,87,-99.99,,,0.00,weatherlink.com 1.10,2013-01-13 12:07:00,
2013-01-13 07:37:00,52.2,49.0,29.86,SSW,200,5.0,-999.0,87,-99.99,,,0.00,weatherlink.com 1.10,2013-01-13 12:37:00,
2013-01-13 08:22:00,52.1,49.0,29.88,West,263,0.0,-999.0,88,-99.99,,,0.00,weatherlink.com 1.10,2013-01-13 13:22:00,
2013-01-13 08:37:00,52.4,49.0,29.88,SW,236,3.0,-999.0,88,-99.99,,,0.00,weatherlink.com 1.10,2013-01-13 13:37:00,
2013-01-13 08:52:00,53.0,50.0,29.89,SW,229,9.0,-999.0,88,-99.99,,,0.00,weatherlink.com 1.10,2013-01-13 13:52:00,
2013-01-13 09:07:00,53.7,51.0,29.89,SW,219,6.0,-999.0,89,-99.99,,,0.00,weatherlink.com 1.10,2013-01-13 14:07:00,
2013-01-13 09:22:00,54.8,52.0,29.89,SW,226,16.0,-999.0,89,-99.99,,,0.00,weatherlink.com 1.10,2013-01-13 14:22:00,
2013-01-13 09:37:00,55.5,52.0,29.88,South,183,11.0,-999.0,87,-99.99,,,0.00,weatherlink.com 1.10,2013-01-13 14:37:00,
2013-01-13 09:52:00,56.1,52.0,29.88,WSW,238,10.0,-999.0,87,-99.99,,,0.00,weatherlink.com 1.10,2013-01-13 14:52:00,
2013-01-13 10:22:00,57.7,54.0,29.86,SSW,194,10.0,-999.0,86,-99.99,,,0.00,weatherlink.com 1.10,2013-01-13 15:22:00,
2013-01-13 10:37:00,58.1,54.0,29.85,SW,217,17.0,-999.0,85,-99.99,,,0.00,weatherlink.com 1.10,2013-01-13 15:37:00,
2013-01-13 10:52:00,57.8,54.0,29.84,SW,236,16.0,-999.0,86,-99.99,,,0.00,weatherlink.com 1.10,2013-01-13 15:52:00,
2013-01-13 11:08:00,59.0,54.0,29.83,SW,223,6.0,-999.0,84,-99.99,,,0.00,weatherlink.com 1.10,2013-01-13 16:08:00,
2013-01-13 11:23:00,59.8,54.0,29.82,SW,215,7.0,-999.0,82,-99.99,,,0.00,weatherlink.com 1.10,2013-01-13 16:23:00,
2013-01-13 11:38:00,60.2,55.0,29.81,SW,232,12.0,-999.0,82,-99.99,,,0.00,weatherlink.com 1.10,2013-01-13 16:38:00,
2013-01-13 11:53:00,59.6,54.0,29.80,SW,236,9.0,-999.0,82,-99.99,,,0.00,weatherlink.com 1.10,2013-01-13 16:53:00,
2013-01-13 12:08:00,59.1,54.0,29.80,South,186,10.0,-999.0,83,-99.99,,,0.00,weatherlink.com 1.10,2013-01-13 17:08:00,
2013-01-13 12:23:00,59.0,54.0,29.79,SW,232,14.0,-999.0,83,-99.99,,,0.00,weatherlink.com 1.10,2013-01-13 17:23:00,
2013-01-13 12:38:00,58.9,54.0,29.79,WSW,240,21.0,-999.0,83,-99.99,,,0.00,weatherlink.com 1.10,2013-01-13 17:38:00,
2013-01-13 12:53:00,59.1,54.0,29.79,WSW,240,12.0,-999.0,82,-99.99,,,0.00,weatherlink.com 1.10,2013-01-13 17:53:00,
2013-01-13 13:08:00,59.1,54.0,29.79,WSW,242,19.0,-999.0,82,-99.99,,,0.00,weatherlink.com 1.10,2013-01-13 18:08:00,
2013-01-13 13:23:00,59.1,53.0,29.80,South,178,14.0,-999.0,81,-99.99,,,0.00,weatherlink.com 1.10,2013-01-13 18:23:00,
2013-01-13 13:38:00,59.5,54.0,29.80,SW,227,8.0,-999.0,81,-99.99,,,0.00,weatherlink.com 1.10,2013-01-13 18:38:00,
2013-01-13 13:53:00,59.5,54.0,29.80,SSW,212,9.0,-999.0,81,-99.99,,,0.00,weatherlink.com 1.10,2013-01-13 18:53:00,
2013-01-13 14:08:00,59.4,54.0,29.80,SW,219,7.0,-999.0,81,-99.99,,,0.00,weatherlink.com 1.10,2013-01-13 19:08:00,
2013-01-13 14:23:00,59.1,53.0,29.81,SSW,204,10.0,-999.0,81,-99.99,,,0.00,weatherlink.com 1.10,2013-01-13 19:23:00,
2013-01-13 14:53:00,58.8,53.0,29.82,WSW,242,9.0,-999.0,81,-99.99,,,0.00,weatherlink.com 1.10,2013-01-13 19:53:00,
2013-01-13 15:08:00,59.0,53.0,29.82,SSW,198,9.0,-999.0,81,-99.99,,,0.00,weatherlink.com 1.10,2013-01-13 20:08:00,
2013-01-13 15:23:00,59.1,53.0,29.82,SSW,202,15.0,-999.0,81,-99.99,,,0.00,weatherlink.com 1.10,2013-01-13 20:23:00,
2013-01-13 15:38:00,59.0,53.0,29.83,SW,222,6.0,-999.0,81,-99.99,,,0.00,weatherlink.com 1.10,2013-01-13 20:38:00,
2013-01-13 16:08:00,58.7,53.0,29.84,West,275,8.0,-999.0,81,-99.99,,,0.00,weatherlink.com 1.10,2013-01-13 21:08:00,
2013-01-13 16:23:00,58.5,53.0,29.85,SW,233,6.0,-999.0,81,-99.99,,,0.00,weatherlink.com 1.10,2013-01-13 21:23:00,
2013-01-13 16:38:00,58.5,53.0,29.86,NW,311,4.0,-999.0,81,-99.99,,,0.00,weatherlink.com 1.10,2013-01-13 21:38:00,
2013-01-13 16:53:00,58.5,53.0,29.87,WSW,237,7.0,-999.0,81,-99.99,,,0.00,weatherlink.com 1.10,2013-01-13 21:53:00,
2013-01-13 17:08:00,58.3,53.0,29.87,SW,236,8.0,-999.0,81,-99.99,,,0.00,weatherlink.com 1.10,2013-01-13 22:08:00,
2013-01-13 17:54:00,57.2,52.0,29.88,SW,236,3.0,-999.0,83,-99.99,,,0.00,weatherlink.com 1.10,2013-01-13 22:54:00,
2013-01-13 18:09:00,56.7,52.0,29.88,SSW,207,3.0,-999.0,84,-99.99,,,0.00,weatherlink.com 1.10,2013-01-13 23:09:00,
2013-01-13 18:24:00,56.3,51.0,29.88,SSW,202,4.0,-999.0,83,-99.99,,,0.00,weatherlink.com 1.10,2013-01-13 23:24:00,
2013-01-13 18:39:00,56.1,51.0,29.87,SW,223,8.0,-999.0,84,-99.99,,,0.00,weatherlink.com 1.10,2013-01-13 23:39:00,
2013-01-13 18:54:00,56.0,51.0,29.87,SSW,213,4.0,-999.0,84,-99.99,,,0.00,weatherlink.com 1.10,2013-01-13 23:54:00,
2013-01-13 19:09:00,55.8,51.0,29.86,WSW,238,7.0,-999.0,84,-99.99,,,0.00,weatherlink.com 1.10,2013-01-14 00:09:00,
2013-01-13 19:24:00,55.5,51.0,29.87,WSW,257,0.0,-999.0,84,-99.99,,,0.00,weatherlink.com 1.10,2013-01-14 00:24:00,
2013-01-13 19:39:00,55.0,51.0,29.87,WSW,244,4.0,-999.0,85,-99.99,,,0.00,weatherlink.com 1.10,2013-01-14 00:39:00,
2013-01-13 20:09:00,54.0,50.0,29.86,SW,223,5.0,-999.0,86,-99.99,,,0.00,weatherlink.com 1.10,2013-01-14 01:09:00,
2013-01-13 20:24:00,53.9,50.0,29.86,SSW,196,14.0,-999.0,87,-99.99,,,0.00,weatherlink.com 1.10,2013-01-14 01:24:00,
2013-01-13 20:39:00,54.0,50.0,29.85,West,271,0.0,-999.0,86,-99.99,,,0.00,weatherlink.com 1.10,2013-01-14 01:39:00,
2013-01-13 20:54:00,54.0,50.0,29.84,WSW,238,2.0,-999.0,86,-99.99,,,0.00,weatherlink.com 1.10,2013-01-14 01:54:00,
2013-01-13 21:09:00,54.0,50.0,29.86,SW,223,5.0,-999.0,86,-99.99,,,0.00,weatherlink.com 1.10,2013-01-14 02:09:00,
2013-01-13 21:39:00,53.9,50.0,29.84,SSW,211,4.0,-999.0,86,-99.99,,,0.00,weatherlink.com 1.10,2013-01-14 02:39:00,
2013-01-13 21:54:00,53.9,50.0,29.84,South,190,10.0,-999.0,86,-99.99,,,0.00,weatherlink.com 1.10,2013-01-14 02:54:00,
2013-01-13 22:09:00,53.7,50.0,29.84,SW,217,5.0,-999.0,86,-99.99,,,0.00,weatherlink.com 1.10,2013-01-14 03:09:00,
2013-01-13 22:24:00,53.4,49.0,29.84,SW,232,6.0,-999.0,86,-99.99,,,0.00,weatherlink.com 1.10,2013-01-14 03:24:00,
2013-01-13 22:39:00,53.4,50.0,29.82,SSW,192,4.0,-999.0,87,-99.99,,,0.00,weatherlink.com 1.10,2013-01-14 03:39:00,
2013-01-13 22:54:00,53.4,49.0,29.82,SSW,202,3.0,-999.0,86,-99.99,,,0.00,weatherlink.com 1.10,2013-01-14 03:54:00,
2013-01-13 23:09:00,52.9,49.0,29.82,SW,229,5.0,-999.0,87,-99.99,,,0.00,weatherlink.com 1.10,2013-01-14 04:09:00,
2013-01-13 23:24:00,52.5,49.0,29.82,SW,215,4.0,-999.0,88,-99.99,,,0.00,weatherlink.com 1.10,2013-01-14 04:24:00,
2013-01-13 23:39:00,52.4,49.0,29.81,SSW,195,4.0,-999.0,88,-99.99,,,0.00,weatherlink.com 1.10,2013-01-14 04:39:00,
2013-01-13 23:54:00,52.4,49.0,29.80,SW,218,2.0,-999.0,89,-99.99,,,0.00,weatherlink.com 1.10,2013-01-14 04:54:00,